Latest Weather Observations for Loxton

IDS60801

Issued at 7:11 pm CST Sunday 26 September 2021 (issued every 10 minutes, with the page automatically refreshed every 10 minutes)

About weather observations | Map of weather stations | Latest weather observations for SA | Other Formats
Station Details ID: 024024 Name: LOXTON RESEARCH CENTRE Lat: -34.44 Lon: 140.60 Height: 30.1 m
Data from the previous 72 hours. | See also: Recent months at Loxton
Date/Time
CST
Temp
°C
App
Temp
°C
Dew
Point
°C
Rel
Hum
%
Delta-T
°C
Wind Press
QNH
hPa
Press
MSL
hPa
Rain since
9am
mm
Dir  Spd
km/h
Gust
km/h
Spd
kts
Gust
kts
26/07:00pm 10.4 8.4 -0.1 48 4.2 CALM 0 0 0 0 1021.2 1021.2 0.0
26/06:30pm 12.7 10.7 0.1 42 5.2 CALM 0 6 0 3 1021.1 1021.1 0.0
26/06:00pm 16.4 13.0 -0.3 32 7.1 ENE 7 9 4 5 1021.1 1021.1 0.0
26/05:30pm 18.4 14.6 -0.9 27 8.2 ENE 9 13 5 7 1020.9 1020.9 0.0
26/05:00pm 18.6 15.1 -1.3 26 8.5 ENE 7 13 4 7 1020.9 1020.9 0.0
26/04:30pm 19.1 14.9 -0.8 26 8.6 E 11 20 6 11 1020.9 1020.9 0.0
26/04:00pm 19.1 14.5 -0.8 26 8.6 E 13 20 7 11 1021.1 1021.1 0.0
26/03:30pm 18.8 15.0 -0.6 27 8.4 NE 9 17 5 9 1021.4 1021.4 0.0
26/03:00pm 18.7 14.5 -0.7 27 8.3 ENE 11 17 6 9 1021.6 1021.6 0.0
26/02:30pm 18.8 14.0 0.4 29 8.1 ESE 15 28 8 15 1021.9 1021.9 0.0
26/02:00pm 18.2 13.0 -0.1 29 7.9 E 17 26 9 14 1022.4 1022.4 0.0
26/01:30pm 18.1 13.4 0.7 31 7.6 E 15 26 8 14 1022.9 1022.9 0.0
26/01:00pm 17.3 11.6 -0.4 30 7.6 E 19 26 10 14 1023.6 1023.6 0.0
26/12:30pm 17.6 14.1 1.2 33 7.2 ESE 9 15 5 8 1024.1 1024.1 0.0
26/12:00pm 16.5 12.1 0.6 34 6.9 SE 13 22 7 12 1024.7 1024.7 0.0
26/11:30am 16.1 11.0 0.7 35 6.6 ESE 17 28 9 15 1025.4 1025.4 0.0
26/11:00am 16.0 11.4 1.3 37 6.4 E 15 24 8 13 1025.9 1025.9 0.0
26/10:30am 15.2 10.1 0.6 37 6.2 E 17 24 9 13 1026.2 1026.2 0.0
26/10:00am 14.6 9.2 1.2 40 5.8 ENE 19 28 10 15 1026.4 1026.4 0.0
26/09:30am 13.2 7.6 1.2 44 5.1 ENE 20 30 11 16 1026.7 1026.7 0.0
26/09:00am 12.6 7.1 1.9 48 4.6 E 20 28 11 15 1027.0 1027.0 0.0
26/08:30am 11.2 5.8 2.2 54 3.8 E 20 28 11 15 1027.2 1027.2 0.0
26/08:00am 9.5 4.0 1.9 59 3.2 E 20 30 11 16 1027.1 1027.1 0.0
26/07:30am 7.9 3.1 2.4 68 2.3 E 17 22 9 12 1026.9 1026.9 0.0
26/07:00am 5.8 1.7 2.1 77 1.5 ESE 13 20 7 11 1026.7 1026.7 0.0
26/06:30am 4.2 0.4 1.9 85 0.9 ESE 11 15 6 8 1026.5 1026.5 0.0
26/06:00am 2.9 -0.6 1.1 88 0.7 SE 9 9 5 5 1026.3 1026.3 0.0
26/05:30am 3.3 -0.2 1.2 86 0.8 SE 9 11 5 6 1025.9 1025.9 0.0
26/05:00am 4.1 -0.1 1.6 84 1.0 SE 13 17 7 9 1025.6 1025.6 0.0
26/04:30am 4.7 0.2 1.9 82 1.1 SE 15 19 8 10 1025.6 1025.6 0.0
26/04:00am 4.8 0.7 2.2 83 1.0 SE 13 17 7 9 1025.5 1025.5 0.0
26/03:30am 4.9 1.2 2.1 82 1.1 SE 11 19 6 10 1025.3 1025.3 0.0
26/03:00am 5.3 1.2 2.3 81 1.2 SE 13 17 7 9 1025.2 1025.2 0.0
26/02:30am 5.1 1.4 2.1 81 1.2 SSE 11 15 6 8 1025.2 1025.2 0.0
26/02:00am 5.8 2.1 2.3 78 1.4 SSE 11 15 6 8 1025.5 1025.5 0.0
26/01:30am 5.8 2.1 2.1 77 1.5 SSE 11 15 6 8 1025.8 1025.8 0.0
26/01:00am 6.5 2.0 2.2 74 1.8 S 15 19 8 10 1026.1 1026.1 0.0
26/12:30am 6.3 2.5 2.0 74 1.7 S 11 15 6 8 1026.1 1026.1 0.0
26/12:00am 6.8 3.0 1.7 70 2.1 S 11 15 6 8 1026.1 1026.1 0.0
 
Date/Time
CST
Temp
°C
App
Temp
°C
Dew
Point
°C
Rel
Hum
%
Delta-T
°C
Wind Press
QNH
hPa
Press
MSL
hPa
Rain since
9am
mm
Dir  Spd
km/h
Gust
km/h
Spd
kts
Gust
kts
25/11:30pm 7.3 3.1 1.4 66 2.4 S 13 17 7 9 1025.9 1025.9 0.0
25/11:00pm 8.2 3.6 1.4 62 2.8 S 15 20 8 11 1025.8 1025.8 0.0
25/10:30pm 8.3 4.0 1.0 60 2.9 S 13 17 7 9 1025.7 1025.7 0.0
25/10:00pm 9.2 4.9 0.9 56 3.4 SSE 13 17 7 9 1025.7 1025.7 0.0
25/09:30pm 9.3 5.4 1.2 57 3.3 S 11 15 6 8 1025.6 1025.6 0.0
25/09:00pm 9.7 5.4 0.9 54 3.6 S 13 15 7 8 1025.4 1025.4 0.0
25/08:30pm 10.6 6.7 0.9 51 4.0 S 11 15 6 8 1025.1 1025.1 0.0
25/08:00pm 11.1 7.1 0.8 49 4.3 S 11 17 6 9 1024.7 1024.7 0.0
25/07:30pm 12.0 7.7 1.1 47 4.6 SSW 13 17 7 9 1024.5 1024.5 0.0
25/07:00pm 12.9 8.3 1.3 45 4.9 SSW 15 22 8 12 1024.1 1024.1 0.0
25/06:30pm 13.7 9.4 1.0 42 5.4 SSW 13 19 7 10 1023.9 1023.9 0.0
25/06:00pm 14.9 10.6 1.1 39 5.9 SSW 13 20 7 11 1023.7 1023.7 0.0
25/05:30pm 15.9 10.5 1.2 37 6.4 SSW 19 30 10 16 1023.3 1023.3 0.0
25/05:00pm 17.0 11.9 1.0 34 7.0 S 17 22 9 12 1023.0 1023.0 0.0
25/04:30pm 17.0 12.2 0.2 32 7.2 S 15 20 8 11 1022.8 1022.8 0.0
25/04:00pm 17.3 12.6 0.9 33 7.2 SSW 15 22 8 12 1022.6 1022.6 0.0
25/03:30pm 16.5 11.9 1.4 36 6.6 S 15 24 8 13 1022.6 1022.6 0.0
25/03:00pm 17.8 12.9 1.7 34 7.2 SSW 17 24 9 13 1022.5 1022.5 0.0
25/02:30pm 16.9 12.7 1.4 35 6.8 SSW 13 24 7 13 1022.4 1022.4 0.0
25/02:00pm 16.9 12.2 1.0 34 7.0 S 15 28 8 15 1022.6 1022.6 0.0
25/01:30pm 16.9 12.0 1.8 36 6.7 S 17 28 9 15 1022.8 1022.8 0.0
25/01:00pm 16.0 11.8 1.7 38 6.3 SW 13 22 7 12 1023.2 1023.2 0.0
25/12:30pm 15.8 11.7 2.2 40 6.0 SSW 13 24 7 13 1023.6 1023.6 0.0
25/12:00pm 15.3 11.4 3.5 45 5.4 S 13 24 7 13 1023.8 1023.8 0.0
25/11:30am 14.8 11.3 3.3 46 5.2 SSE 11 24 6 13 1024.0 1024.0 0.0
25/11:00am 14.2 10.4 3.7 49 4.8 S 13 20 7 11 1024.0 1024.0 0.0
25/10:30am 13.8 10.8 4.1 52 4.4 SSE 9 15 5 8 1024.0 1024.0 0.0
25/10:00am 13.2 9.1 4.1 54 4.1 SSE 15 24 8 13 1024.1 1024.1 0.0
25/09:30am 13.6 9.5 4.5 54 4.2 SSE 15 26 8 14 1024.0 1024.0 0.0
25/09:00am 12.1 8.7 5.7 65 3.0 S 13 20 7 11 1023.9 1023.9 0.0
25/08:30am 11.7 8.3 6.0 68 2.7 SSE 13 20 7 11 1023.7 1023.7 0.0
25/08:00am 10.7 8.0 7.4 80 1.6 S 11 17 6 9 1023.5 1023.5 0.0
25/07:30am 9.8 7.5 7.4 85 1.1 S 9 15 5 8 1023.0 1023.0 0.0
25/07:00am 9.0 6.3 7.5 90 0.7 SSW 11 15 6 8 1022.7 1022.7 0.0
25/06:30am 8.1 5.3 7.0 93 0.5 SW 11 13 6 7 1022.2 1022.2 0.0
25/06:00am 7.9 5.4 6.5 91 0.6 SW 9 13 5 7 1021.6 1021.6 0.0
25/05:30am 7.9 5.4 6.5 91 0.6 SW 9 15 5 8 1021.2 1021.2 0.0
25/05:00am 7.8 4.9 6.3 90 0.7 SW 11 15 6 8 1021.0 1021.0 0.0
25/04:30am 7.0 4.7 5.6 91 0.6 SW 7 9 4 5 1020.6 1020.6 0.0
25/04:00am 6.9 4.2 5.5 91 0.6 SW 9 11 5 6 1020.3 1020.3 0.0
25/03:30am 6.6 4.1 4.9 89 0.7 WSW 7 9 4 5 1020.1 1020.1 0.0
25/03:00am 7.5 4.8 5.5 87 0.9 SW 9 13 5 7 1019.7 1019.7 0.0
25/02:30am 8.5 5.2 6.3 86 1.0 SW 13 17 7 9 1019.6 1019.6 0.0
25/02:00am 8.8 5.5 6.4 85 1.1 SW 13 19 7 10 1019.7 1019.7 0.0
25/01:30am 8.9 5.2 6.3 84 1.2 SW 15 20 8 11 1019.6 1019.6 0.0
25/01:00am 9.6 6.4 6.7 82 1.4 SW 13 17 7 9 1019.6 1019.6 0.0
25/12:30am 9.1 6.6 6.4 83 1.2 WSW 9 13 5 7 1019.6 1019.6 0.0
25/12:00am 9.3 7.1 6.0 80 1.5 SW 7 9 4 5 1019.7 1019.7 0.0
 
Date/Time
CST
Temp
°C
App
Temp
°C
Dew
Point
°C
Rel
Hum
%
Delta-T
°C
Wind Press
QNH
hPa
Press
MSL
hPa
Rain since
9am
mm
Dir  Spd
km/h
Gust
km/h
Spd
kts
Gust
kts
24/11:30pm 10.1 7.5 6.3 77 1.8 SW 9 13 5 7 1019.7 1019.7 0.0
24/11:00pm 9.6 6.7 6.3 80 1.5 SW 11 15 6 8 1019.6 1019.6 0.0
24/10:30pm 10.0 6.6 6.0 76 1.8 SW 13 17 7 9 1019.5 1019.5 0.0
24/10:00pm 10.5 6.7 5.9 73 2.1 SW 15 22 8 12 1019.3 1019.3 0.0
24/09:30pm 10.6 7.4 5.2 69 2.5 SW 11 17 6 9 1019.1 1019.1 0.0
24/09:00pm 10.8 6.6 3.6 61 3.2 SW 15 19 8 10 1018.8 1018.8 0.0
24/08:30pm 11.4 7.5 3.4 58 3.5 SW 13 17 7 9 1018.6 1018.6 0.0
24/08:00pm 12.1 8.2 3.6 56 3.8 SSW 13 17 7 9 1018.2 1018.2 0.0
24/07:30pm 13.1 9.3 4.0 54 4.1 SSW 13 20 7 11 1017.8 1017.8 0.0
24/07:00pm 14.0 8.9 4.0 51 4.6 SSW 20 28 11 15 1017.3 1017.3 0.0
24/06:30pm 14.9 9.5 4.6 50 4.8 SSW 22 35 12 19 1016.7 1016.7 0.0
24/06:00pm 16.0 11.0 4.7 47 5.3 SW 20 28 11 15 1016.1 1016.1 0.0
24/05:30pm 17.3 11.9 4.6 43 6.0 SW 22 35 12 19 1015.6 1015.6 0.0
24/05:00pm 18.4 12.3 2.7 35 7.2 WSW 24 43 13 23 1015.1 1015.1 0.0
24/04:30pm 19.3 13.1 4.3 37 7.2 WSW 26 41 14 22 1014.8 1014.8 0.0
24/04:00pm 18.4 12.2 6.3 45 6.0 SW 28 41 15 22 1014.6 1014.6 0.0
24/03:30pm 19.3 13.6 6.8 44 6.3 SW 26 43 14 23 1014.4 1014.3 0.0
24/03:17pm 19.9 14.0 7.3 44 6.4 SW 28 48 15 26 1014.3 1014.2 0.0
24/03:00pm 20.3 14.1 7.7 44 6.5 WSW 30 44 16 24 1014.2 1014.1 0.0
24/02:47pm 20.2 13.6 7.6 44 6.5 SW 32 52 17 28 1014.0 1013.9 0.0
24/02:30pm 20.2 14.4 7.9 45 6.4 SSW 28 44 15 24 1013.9 1013.8 0.0
24/02:00pm 22.5 16.1 5.4 33 8.6 WSW 28 43 15 23 1013.9 1013.8 0.0
24/01:30pm 21.9 16.4 5.8 35 8.1 W 24 41 13 22 1013.9 1013.8 0.0
24/01:00pm 23.0 17.1 5.9 33 8.7 W 26 41 14 22 1014.1 1014.0 0.0
24/12:30pm 22.5 17.0 5.9 34 8.4 W 24 33 13 18 1014.2 1014.1 0.0
24/12:00pm 22.2 16.3 6.0 35 8.2 W 26 37 14 20 1014.6 1014.6 0.0
24/11:30am 22.2 17.1 4.3 31 8.7 WSW 20 41 11 22 1014.9 1014.9 0.0
24/11:00am 20.8 15.8 4.4 34 8.0 WSW 20 30 11 16 1015.1 1015.1 0.0
24/10:30am 20.1 14.6 4.2 35 7.6 SW 22 32 12 17 1015.3 1015.3 0.0
24/10:00am 19.7 14.6 4.2 36 7.4 WSW 20 32 11 17 1015.4 1015.4 0.0
24/09:30am 19.7 14.2 4.2 36 7.4 W 22 35 12 19 1015.6 1015.6 0.0
24/09:00am 18.4 13.4 3.8 38 6.9 WSW 19 26 10 14 1015.5 1015.5 0.0
24/08:30am 17.0 12.8 3.7 41 6.2 W 15 20 8 11 1015.6 1015.6 0.0
24/08:00am 14.6 10.6 3.1 46 5.2 WNW 13 17 7 9 1015.4 1015.4 0.0
24/07:30am 12.2 8.7 3.7 56 3.8 WNW 11 15 6 8 1015.3 1015.3 0.0
24/07:00am 10.4 7.4 3.9 64 2.9 NW 9 11 5 6 1015.1 1015.1 0.0
24/06:30am 9.2 6.0 3.2 66 2.6 NW 9 13 5 7 1014.8 1014.8 0.0
24/06:00am 8.6 5.0 3.2 69 2.3 NW 11 13 6 7 1014.5 1014.4 0.0
24/05:30am 8.9 5.4 3.3 68 2.4 NW 11 13 6 7 1014.4 1014.3 0.0
24/05:00am 8.9 5.3 2.9 66 2.6 NW 11 13 6 7 1014.3 1014.2 0.0
24/04:30am 9.2 5.6 3.2 66 2.6 NW 11 15 6 8 1014.2 1014.1 0.0
24/04:00am 10.1 6.3 4.0 66 2.7 NNW 13 15 7 8 1014.2 1014.1 0.0
24/03:30am 9.5 6.3 3.0 64 2.8 NW 9 13 5 7 1014.4 1014.3 0.0
24/03:00am 5.5 2.2 2.3 80 1.3 NW 9 13 5 7 1014.5 1014.4 0.0
24/02:30am 5.4 3.8 2.6 82 1.1 CALM 0 0 0 0 1014.7 1014.7 0.0
24/02:00am 5.7 3.7 2.4 79 1.3 W 2 6 1 3 1015.0 1015.0 0.0
24/01:30am 6.1 4.5 2.6 78 1.4 CALM 0 0 0 0 1015.5 1015.5 0.0
24/01:00am 6.6 5.2 3.8 82 1.2 CALM 0 0 0 0 1015.9 1015.9 0.0
24/12:30am 6.8 5.3 2.9 76 1.6 CALM 0 6 0 3 1016.1 1016.1 0.0
24/12:00am 7.3 4.7 3.4 76 1.7 W 6 6 3 3 1016.6 1016.6 0.0
 
Date/Time
CST
Temp
°C
App
Temp
°C
Dew
Point
°C
Rel
Hum
%
Delta-T
°C
Wind Press
QNH
hPa
Press
MSL
hPa
Rain since
9am
mm
Dir  Spd
km/h
Gust
km/h
Spd
kts
Gust
kts
23/11:30pm 7.6 5.0 4.2 79 1.5 W 7 7 4 4 1017.0 1017.0 0.0
23/11:00pm 8.2 6.9 4.2 76 1.7 CALM 0 0 0 0 1017.3 1017.3 0.0
23/10:30pm 9.2 7.9 4.0 70 2.3 CALM 0 0 0 0 1017.4 1017.4 0.0
23/10:00pm 10.4 8.9 3.0 60 3.2 CALM 0 0 0 0 1017.5 1017.5 0.0
23/09:30pm 12.7 10.1 3.4 53 4.1 SW 6 9 3 5 1017.8 1017.8 0.0
23/09:00pm 14.6 11.8 3.1 46 5.2 SSW 7 11 4 6 1017.7 1017.7 0.0
23/08:30pm 16.3 12.3 2.7 40 6.1 SW 13 19 7 10 1017.7 1017.7 0.0
23/08:00pm 17.7 14.8 2.5 36 6.9 WSW 7 11 4 6 1017.4 1017.4 0.0
23/07:30pm 19.8 15.8 2.6 32 8.0 WSW 13 20 7 11 1017.5 1017.5 0.0

Other formats

Comma delimited format used in spreadsheet applications
http://www.bom.gov.au/fwo/IDS60801/IDS60801.94682.axf

JavaScript Object Notation format (JSON) in row-major order
http://www.bom.gov.au/fwo/IDS60801/IDS60801.94682.json

Data quality

Most of these data are generated automatically and are frequently updated. Quality checks on data are not normally performed. It is possible for incorrect values to appear. Refer to information at About Latest Weather Observations and please check the disclaimer before using these data.